createdAt,value
2023-04-30T00:01:52.045Z,2.88
2023-04-30T00:04:55.229Z,2.40
2023-04-30T00:07:56.958Z,2.80
2023-04-30T00:10:58.698Z,3.30
2023-04-30T00:14:00.529Z,2.70
2023-04-30T00:17:02.536Z,2.05
2023-04-30T00:20:07.298Z,2.88
2023-04-30T00:23:09.308Z,2.85
2023-04-30T00:26:11.076Z,2.40
2023-04-30T00:29:13.474Z,2.30
2023-04-30T00:32:15.435Z,2.22
2023-04-30T00:35:18.980Z,2.88
2023-04-30T00:38:21.644Z,2.25
2023-04-30T00:41:25.650Z,2.45
2023-04-30T00:44:27.463Z,2.60
2023-04-30T00:47:32.551Z,3.00
2023-04-30T00:50:36.892Z,2.38
2023-04-30T00:53:39.967Z,2.80
2023-04-30T00:56:41.921Z,2.63
2023-04-30T00:59:46.941Z,2.47
2023-04-30T01:02:49.808Z,2.33
2023-04-30T01:05:54.056Z,2.30
2023-04-30T01:08:57.265Z,2.40
2023-04-30T01:12:09.543Z,2.25
2023-04-30T01:15:19.014Z,2.58
2023-04-30T01:18:25.855Z,2.35
2023-04-30T01:21:33.538Z,2.72
2023-04-30T01:25:11.061Z,2.50
2023-04-30T01:28:16.833Z,2.33
2023-04-30T01:31:19.899Z,2.33
2023-04-30T01:34:21.841Z,2.13
2023-04-30T01:37:31.715Z,2.50
2023-04-30T01:40:43.406Z,2.55
2023-04-30T01:43:56.027Z,2.08
2023-04-30T01:47:03.582Z,2.60
2023-04-30T01:50:20.284Z,2.20
2023-04-30T01:53:29.251Z,2.15
2023-04-30T01:56:38.034Z,2.55
2023-04-30T01:59:42.930Z,2.30
2023-04-30T02:02:44.809Z,2.40
2023-04-30T02:05:47.386Z,2.55
2023-04-30T02:08:49.206Z,2.42
2023-04-30T02:11:51.456Z,2.78
2023-04-30T02:17:42.832Z,2.15
2023-04-30T02:20:44.611Z,2.05
2023-04-30T02:23:49.811Z,1.98
2023-04-30T02:32:42.932Z,2.00
2023-04-30T02:35:44.662Z,1.70
2023-04-30T02:38:46.917Z,1.85
2023-04-30T02:41:48.609Z,1.95
2023-04-30T02:44:50.471Z,2.25
2023-04-30T02:47:53.467Z,2.00
2023-04-30T02:50:55.185Z,1.90
2023-04-30T02:53:57.125Z,2.28
2023-04-30T02:56:59.102Z,2.00
2023-04-30T03:02:42.645Z,2.25
2023-04-30T03:05:44.248Z,2.50
2023-04-30T03:08:46.311Z,2.20
2023-04-30T03:11:47.864Z,2.20
2023-04-30T03:17:45.908Z,2.28
2023-04-30T03:20:47.984Z,2.30
2023-04-30T03:23:49.781Z,2.05
2023-04-30T03:26:51.561Z,2.00
2023-04-30T03:29:53.633Z,2.60
2023-04-30T03:32:57.055Z,2.38
2023-04-30T03:35:58.917Z,2.42
2023-04-30T03:39:01.250Z,2.63
2023-04-30T03:42:03.580Z,1.75
2023-04-30T03:45:06.849Z,2.45
2023-04-30T03:48:10.103Z,2.53
2023-04-30T03:51:11.859Z,2.72
2023-04-30T03:54:13.700Z,2.95
2023-04-30T03:57:15.754Z,2.42
2023-04-30T04:00:17.669Z,2.63
2023-04-30T04:03:25.524Z,2.33
2023-04-30T04:06:27.278Z,2.70
2023-04-30T04:09:29.148Z,2.72
2023-04-30T04:12:30.939Z,2.53
2023-04-30T04:15:33.303Z,2.75
2023-04-30T04:18:37.918Z,2.67
2023-04-30T04:21:39.849Z,2.42
2023-04-30T04:24:48.002Z,2.72
2023-04-30T04:27:54.617Z,2.35
2023-04-30T04:30:56.455Z,2.60
2023-04-30T04:34:00.445Z,2.38
2023-04-30T04:37:03.213Z,2.47
2023-04-30T04:40:06.571Z,2.22
2023-04-30T04:43:08.403Z,2.65
2023-04-30T04:46:13.011Z,2.15
2023-04-30T04:49:17.318Z,2.28
2023-04-30T04:52:19.078Z,2.55
2023-04-30T04:55:20.918Z,2.63
2023-04-30T04:58:22.787Z,2.08
2023-04-30T05:01:24.751Z,2.53
2023-04-30T05:04:28.339Z,2.25
2023-04-30T05:07:30.074Z,2.58
2023-04-30T05:10:32.422Z,2.63
2023-04-30T05:13:34.114Z,2.25
2023-04-30T05:16:35.836Z,2.55
2023-04-30T05:19:38.872Z,2.45
2023-04-30T05:22:40.667Z,2.50
2023-04-30T05:25:42.549Z,2.33
2023-04-30T05:28:45.330Z,2.35
2023-04-30T05:31:47.370Z,2.30
2023-04-30T05:34:50.551Z,2.22
2023-04-30T05:37:52.458Z,2.25
2023-04-30T05:40:54.133Z,2.25
2023-04-30T05:43:55.812Z,2.35
2023-04-30T05:46:58.188Z,2.65
2023-04-30T05:50:01.423Z,2.50
2023-04-30T05:53:03.201Z,2.15
2023-04-30T05:56:06.301Z,2.55
2023-04-30T05:59:08.116Z,2.08
2023-04-30T06:02:10.122Z,2.42
2023-04-30T06:05:16.489Z,2.53
2023-04-30T06:08:18.494Z,2.45
2023-04-30T06:11:21.062Z,2.03
2023-04-30T06:14:22.947Z,2.47
2023-04-30T06:17:24.728Z,1.75
2023-04-30T06:20:27.977Z,2.55
2023-04-30T06:23:29.817Z,2.08
2023-04-30T06:26:32.311Z,2.40
2023-04-30T06:29:34.011Z,2.47
2023-04-30T06:32:35.887Z,2.28
2023-04-30T06:35:40.630Z,1.85
2023-04-30T06:38:43.333Z,2.20
2023-04-30T06:41:45.256Z,2.33
2023-04-30T06:44:47.263Z,2.30
2023-04-30T06:47:49.171Z,2.13
2023-04-30T06:50:52.660Z,2.47
2023-04-30T06:53:54.595Z,2.20
2023-04-30T06:56:56.832Z,2.38
2023-04-30T06:59:58.518Z,2.60
2023-04-30T07:03:02.869Z,2.35
2023-04-30T07:06:06.240Z,3.15
2023-04-30T07:09:08.043Z,2.50
2023-04-30T07:12:12.173Z,1.98
2023-04-30T07:15:16.668Z,2.67
2023-04-30T07:18:18.597Z,2.30
2023-04-30T07:21:21.939Z,1.85
2023-04-30T07:24:23.863Z,2.10
2023-04-30T07:27:25.994Z,1.95
2023-04-30T07:30:27.712Z,2.08
2023-04-30T07:33:30.413Z,2.30
2023-04-30T07:36:33.679Z,2.40
2023-04-30T07:39:38.104Z,2.42
2023-04-30T07:45:42.965Z,1.90
2023-04-30T07:48:45.073Z,2.05
2023-04-30T07:51:48.460Z,1.90
2023-04-30T07:54:50.285Z,1.42
2023-04-30T07:57:52.043Z,2.15
2023-04-30T08:00:53.897Z,1.70
2023-04-30T08:03:56.006Z,1.67
2023-04-30T08:06:59.232Z,1.90
2023-04-30T08:10:01.545Z,1.90
2023-04-30T08:13:04.231Z,1.90
2023-04-30T08:16:06.819Z,2.13
2023-04-30T08:19:09.045Z,2.42
2023-04-30T08:22:15.349Z,1.92
2023-04-30T08:25:18.480Z,2.00
2023-04-30T08:28:20.302Z,1.60
2023-04-30T08:31:22.199Z,1.63
2023-04-30T08:37:47.622Z,1.23
2023-04-30T08:40:56.477Z,1.45
2023-04-30T08:44:01.745Z,1.23
2023-04-30T08:47:08.179Z,1.52
2023-04-30T08:50:10.374Z,0.82
2023-04-30T08:53:17.297Z,1.23
2023-04-30T08:56:18.994Z,1.40
2023-04-30T08:59:23.965Z,1.25
2023-04-30T09:02:25.975Z,1.42
2023-04-30T09:05:27.864Z,1.05
2023-04-30T09:08:44.670Z,1.05
2023-04-30T09:11:46.809Z,0.98
2023-04-30T09:14:59.583Z,1.15
2023-04-30T09:18:07.964Z,1.02
2023-04-30T09:21:10.950Z,0.90
2023-04-30T09:24:14.090Z,0.70
2023-04-30T09:27:17.236Z,0.90
2023-04-30T09:30:31.783Z,0.60
2023-04-30T09:33:46.399Z,0.73
2023-04-30T09:36:53.806Z,1.20
2023-04-30T09:39:57.665Z,0.75
2023-04-30T09:43:01.746Z,0.90
2023-04-30T09:46:07.057Z,1.13
2023-04-30T09:49:11.270Z,0.57
2023-04-30T09:52:15.806Z,3.88
2023-04-30T09:55:20.979Z,0.90
2023-04-30T09:58:23.935Z,0.77
2023-04-30T10:01:28.081Z,1.00
2023-04-30T10:04:32.335Z,0.80
2023-04-30T10:07:41.618Z,3.42
2023-04-30T10:10:50.486Z,1.73
2023-04-30T10:13:55.634Z,1.05
2023-04-30T10:17:08.725Z,0.77
2023-04-30T10:20:13.269Z,1.10
2023-04-30T10:23:15.272Z,0.80
2023-04-30T10:26:18.630Z,0.90
2023-04-30T10:29:20.449Z,1.00
2023-04-30T10:32:24.291Z,0.80
2023-04-30T10:35:33.358Z,0.77
2023-04-30T10:38:36.118Z,0.40
2023-04-30T10:41:49.566Z,0.57
2023-04-30T10:44:52.031Z,0.65
2023-04-30T10:47:56.763Z,0.95
2023-04-30T10:51:11.746Z,0.60
2023-04-30T10:54:30.341Z,1.50
2023-04-30T10:57:48.450Z,3.00
2023-04-30T11:01:06.106Z,1.92
2023-04-30T11:04:18.449Z,0.90
2023-04-30T11:07:26.043Z,1.00
2023-04-30T11:10:33.334Z,0.60
2023-04-30T11:13:48.607Z,0.57
2023-04-30T11:16:55.132Z,0.50
2023-04-30T11:20:01.716Z,0.50
2023-04-30T11:23:21.767Z,0.50
2023-04-30T11:26:30.262Z,0.80
2023-04-30T11:29:43.815Z,0.40
2023-04-30T11:32:49.107Z,0.50
2023-04-30T11:36:02.238Z,0.30
2023-04-30T11:39:07.909Z,0.43
2023-04-30T11:42:20.454Z,1.58
2023-04-30T11:45:23.795Z,2.13
2023-04-30T11:48:30.290Z,0.80
2023-04-30T11:51:42.561Z,0.50
2023-04-30T11:54:44.389Z,0.57
2023-04-30T11:57:55.679Z,1.05
2023-04-30T12:01:00.349Z,2.13
2023-04-30T12:04:12.288Z,0.55
2023-04-30T12:07:14.223Z,0.40
2023-04-30T12:10:19.715Z,1.50
2023-04-30T12:13:25.925Z,2.10
2023-04-30T12:16:41.698Z,0.80
2023-04-30T12:19:53.700Z,0.45
2023-04-30T12:22:56.101Z,0.40
2023-04-30T12:25:59.936Z,0.40
2023-04-30T12:29:15.788Z,0.57
2023-04-30T12:32:19.553Z,0.40
2023-04-30T12:35:29.733Z,0.45
2023-04-30T12:38:32.000Z,0.50
2023-04-30T12:41:37.437Z,0.40
2023-04-30T12:44:45.221Z,0.43
2023-04-30T12:47:49.374Z,0.40
2023-04-30T12:50:55.029Z,0.50
2023-04-30T12:53:56.960Z,0.50
2023-04-30T12:57:08.377Z,0.38
2023-04-30T13:00:18.900Z,0.50
2023-04-30T13:03:22.304Z,0.43
2023-04-30T13:06:24.373Z,0.40
2023-04-30T13:09:26.190Z,0.50
2023-04-30T13:12:37.897Z,0.38
2023-04-30T13:15:40.732Z,0.40
2023-04-30T13:18:44.085Z,0.45
2023-04-30T13:21:56.357Z,0.40
2023-04-30T13:24:58.628Z,0.30
2023-04-30T13:28:10.661Z,0.50
2023-04-30T13:31:13.576Z,3.05
2023-04-30T13:34:16.806Z,0.40
2023-04-30T13:37:19.152Z,0.40
2023-04-30T13:40:21.015Z,0.55
2023-04-30T13:43:23.316Z,0.43
2023-04-30T13:46:26.482Z,0.32
2023-04-30T13:49:35.037Z,0.40
2023-04-30T13:52:37.180Z,0.50
2023-04-30T13:55:39.006Z,0.40
2023-04-30T13:58:42.063Z,0.45
2023-04-30T14:01:47.125Z,0.40
2023-04-30T14:05:05.122Z,0.20
2023-04-30T14:08:18.118Z,0.30
2023-04-30T14:11:21.814Z,0.30
2023-04-30T14:14:23.976Z,0.40
2023-04-30T14:17:33.274Z,0.38
2023-04-30T14:20:46.498Z,0.50
2023-04-30T14:23:48.343Z,0.40
2023-04-30T14:26:57.039Z,0.20
2023-04-30T14:30:10.211Z,0.30
2023-04-30T14:33:13.111Z,0.40
2023-04-30T14:36:16.484Z,0.30
2023-04-30T14:39:28.338Z,0.30
2023-04-30T14:42:40.120Z,0.40
2023-04-30T14:45:42.383Z,0.35
2023-04-30T14:48:45.236Z,0.20
2023-04-30T14:51:56.835Z,0.40
2023-04-30T14:54:58.598Z,0.30
2023-04-30T14:58:01.377Z,0.30
2023-04-30T15:01:05.579Z,0.30
2023-04-30T15:04:07.571Z,0.32
2023-04-30T15:07:11.055Z,0.28
2023-04-30T15:10:12.823Z,0.40
2023-04-30T15:13:14.974Z,0.30
2023-04-30T15:16:17.174Z,0.32
2023-04-30T15:19:18.883Z,0.20
2023-04-30T15:22:24.095Z,1.70
2023-04-30T15:25:27.160Z,0.90
2023-04-30T15:28:32.880Z,0.20
2023-04-30T15:31:35.400Z,0.40
2023-04-30T15:34:37.472Z,0.57
2023-04-30T15:37:41.510Z,0.50
2023-04-30T15:40:43.911Z,0.57
2023-04-30T15:43:45.632Z,0.30
2023-04-30T15:46:47.875Z,2.47
2023-04-30T15:49:49.559Z,1.27
2023-04-30T15:52:52.742Z,1.00
2023-04-30T15:55:54.734Z,3.40
2023-04-30T15:58:57.512Z,0.93
2023-04-30T16:02:00.473Z,0.82
2023-04-30T16:05:03.939Z,0.35
2023-04-30T16:08:08.982Z,0.43
2023-04-30T16:11:13.185Z,0.73
2023-04-30T16:14:15.321Z,0.38
2023-04-30T16:17:17.393Z,0.25
2023-04-30T16:20:20.368Z,0.90
2023-04-30T16:23:23.562Z,1.40
2023-04-30T16:26:27.218Z,0.70
2023-04-30T16:29:29.133Z,0.40
2023-04-30T16:32:36.894Z,0.40
2023-04-30T16:35:39.629Z,0.32
2023-04-30T16:38:46.474Z,0.40
2023-04-30T16:41:48.456Z,0.30
2023-04-30T16:44:55.344Z,0.40
2023-04-30T16:47:57.098Z,0.32
2023-04-30T16:50:58.963Z,0.40
2023-04-30T16:54:02.754Z,0.22
2023-04-30T16:57:04.646Z,0.30
2023-04-30T17:00:08.608Z,0.30
2023-04-30T17:03:10.628Z,0.80
2023-04-30T17:06:14.123Z,0.32
2023-04-30T17:09:19.795Z,0.32
2023-04-30T17:12:21.535Z,0.40
2023-04-30T17:15:23.456Z,0.30
2023-04-30T17:18:25.321Z,0.20
2023-04-30T17:21:29.788Z,1.10
2023-04-30T17:24:34.745Z,0.40
2023-04-30T17:27:37.525Z,0.30
2023-04-30T17:30:44.747Z,0.40
2023-04-30T17:33:48.861Z,0.43
2023-04-30T17:36:51.115Z,1.30
2023-04-30T17:39:56.082Z,0.57
2023-04-30T17:42:58.187Z,0.40
2023-04-30T17:46:00.233Z,0.40
2023-04-30T17:49:03.618Z,0.43
2023-04-30T17:52:07.261Z,0.20
2023-04-30T17:55:11.395Z,0.30
2023-04-30T17:58:14.005Z,0.30
2023-04-30T18:01:15.937Z,0.30
2023-04-30T18:04:20.421Z,0.20
2023-04-30T18:07:22.453Z,0.40
2023-04-30T18:10:27.436Z,0.20
2023-04-30T18:13:31.089Z,0.30
2023-04-30T18:16:33.562Z,0.28
2023-04-30T18:19:41.526Z,0.50
2023-04-30T18:22:43.810Z,0.30
2023-04-30T18:25:47.633Z,0.30
2023-04-30T18:28:50.745Z,0.50
2023-04-30T18:31:52.687Z,0.35
2023-04-30T18:34:56.803Z,0.22
2023-04-30T18:38:01.832Z,0.40
2023-04-30T18:41:07.288Z,0.30
2023-04-30T18:44:11.753Z,0.30
2023-04-30T18:53:21.546Z,0.30
2023-04-30T18:56:24.701Z,0.20
2023-04-30T18:59:28.713Z,0.30
2023-04-30T19:02:32.489Z,0.40
2023-04-30T19:05:35.627Z,0.20
2023-04-30T19:08:37.304Z,0.10
2023-04-30T19:11:41.101Z,0.20
2023-04-30T19:14:42.908Z,0.30
2023-04-30T19:17:46.253Z,0.32
2023-04-30T19:20:56.935Z,0.38
2023-04-30T19:24:00.731Z,0.40
2023-04-30T19:27:04.535Z,0.30
2023-04-30T19:33:09.466Z,0.20
2023-04-30T19:36:12.563Z,0.40
2023-04-30T19:39:15.613Z,0.20
2023-04-30T19:42:21.034Z,0.30
2023-04-30T19:45:22.834Z,0.30
2023-04-30T19:48:26.017Z,0.40
2023-04-30T19:51:27.988Z,0.32
2023-04-30T19:54:29.872Z,0.40
2023-04-30T19:57:35.033Z,0.32
2023-04-30T20:00:41.719Z,0.38
2023-04-30T20:03:44.673Z,0.30
2023-04-30T20:09:54.960Z,0.38
2023-04-30T20:12:58.584Z,0.40
2023-04-30T20:16:00.480Z,0.35
2023-04-30T20:19:02.622Z,0.40
2023-04-30T20:22:04.761Z,0.50
2023-04-30T20:25:08.211Z,0.60
2023-04-30T20:28:12.428Z,0.45
2023-04-30T20:31:15.318Z,0.50
2023-04-30T20:34:17.300Z,0.38
2023-04-30T20:37:20.572Z,0.30
2023-04-30T20:40:22.292Z,0.40
2023-04-30T20:43:27.002Z,0.30
2023-04-30T20:46:29.014Z,0.40
2023-04-30T20:49:31.150Z,0.30
2023-04-30T20:52:35.205Z,0.40
2023-04-30T20:55:38.723Z,0.25
2023-04-30T20:58:42.962Z,0.35
2023-04-30T21:01:44.826Z,0.30
2023-04-30T21:04:46.782Z,0.30
2023-04-30T21:07:52.743Z,0.28
2023-04-30T21:10:54.458Z,0.30
2023-04-30T21:13:58.504Z,0.35
2023-04-30T21:17:00.269Z,0.50
2023-04-30T21:20:02.418Z,0.30
2023-04-30T21:23:05.627Z,0.30
2023-04-30T21:26:07.426Z,0.50
2023-04-30T21:29:10.849Z,0.40
2023-04-30T21:32:12.658Z,0.50
2023-04-30T21:35:15.050Z,0.40
2023-04-30T21:38:16.964Z,0.47
2023-04-30T21:41:19.798Z,0.50
2023-04-30T21:44:23.087Z,0.68
2023-04-30T21:47:25.984Z,0.47
2023-04-30T21:50:32.289Z,0.60
2023-04-30T21:53:34.925Z,0.50
2023-04-30T21:56:36.853Z,0.43
2023-04-30T21:59:42.342Z,0.43
2023-04-30T22:02:44.581Z,0.68
2023-04-30T22:05:46.321Z,0.40
2023-04-30T22:08:48.253Z,0.63
2023-04-30T22:11:51.733Z,0.55
2023-04-30T22:14:55.540Z,0.90
2023-04-30T22:17:58.782Z,0.70
2023-04-30T22:21:01.996Z,0.55
2023-04-30T22:24:06.978Z,0.52
2023-04-30T22:27:08.640Z,0.57
2023-04-30T22:30:16.150Z,0.60
2023-04-30T22:33:21.572Z,0.80
2023-04-30T22:36:25.172Z,0.50
2023-04-30T22:39:29.150Z,0.40
2023-04-30T22:42:33.293Z,0.40
2023-04-30T22:45:38.341Z,0.40
2023-04-30T22:48:40.356Z,0.40
2023-04-30T22:51:43.821Z,0.35
2023-04-30T22:54:45.505Z,0.60
2023-04-30T22:57:47.705Z,0.40
2023-04-30T23:00:50.828Z,0.40
2023-04-30T23:03:52.821Z,0.30
2023-04-30T23:06:55.879Z,0.45
2023-04-30T23:09:57.967Z,0.55
2023-04-30T23:12:59.893Z,0.50
2023-04-30T23:16:05.632Z,0.40
2023-04-30T23:19:07.763Z,0.50
2023-04-30T23:22:11.459Z,0.57
2023-04-30T23:25:13.581Z,0.30
2023-04-30T23:28:15.508Z,0.40
2023-04-30T23:31:18.787Z,0.68
2023-04-30T23:34:22.194Z,0.52
2023-04-30T23:37:24.009Z,0.60
2023-04-30T23:40:26.454Z,0.60
2023-04-30T23:43:29.684Z,0.70
2023-04-30T23:49:36.142Z,0.50
2023-04-30T23:52:37.900Z,0.43
2023-04-30T23:55:41.052Z,0.80
2023-04-30T23:58:44.015Z,0.80
